Allegany, Oregon
Current Conditions -  °F | °C
As of 6:35 PM on Friday 24 Oct 2014 (Local Time) from KOTH Reporting Station
Broken Clouds Broken Clouds  
Wind Chill: 59°   Ceiling: 5000
Heat Index: 59°   Visibility: 10mi
Dew Point: 59°   Wind: 7mph
Humidity: 100%   Direction: 130°SE
Pressure: 29.69"   Gusts: NA
Location:  43.43°N, 124.03°W
Report Text: KOTH 250135Z 13006KT 10SM BKN050 15/15 A2969 RMK AO1
Loading
Personal Weather Stations






























Interactive Weather Map
Tropical Storm Tracking
New forecast layout! Learn more

10-Day Weather Forecast

Advertisements
Track Severe Weather on mobile